createdAt,value
2022-09-04T06:44:49.815Z,100576.70
2022-09-04T06:51:08.319Z,100581.01
2022-09-04T06:58:03.146Z,100584.38
2022-09-04T06:58:20.084Z,100587.45
2022-09-04T07:00:40.316Z,100581.17
2022-09-04T07:10:54.834Z,100574.89
2022-09-04T07:13:35.210Z,100575.11
2022-09-04T07:17:39.312Z,100580.52
2022-09-04T07:20:28.225Z,100584.38
2022-09-04T07:37:46.239Z,100597.66
2022-09-04T07:40:38.263Z,100596.92
2022-09-04T07:47:01.491Z,100603.38
2022-09-04T07:49:38.386Z,100605.59
2022-09-04T07:52:27.856Z,100603.73
2022-09-04T07:55:08.178Z,100609.23
2022-09-04T07:57:46.446Z,100609.77
2022-09-04T08:00:18.420Z,100608.38
2022-09-04T08:02:56.050Z,100612.67
2022-09-04T08:05:33.524Z,100612.05
2022-09-04T08:08:44.878Z,100607.77
2022-09-04T08:11:27.436Z,100608.55
2022-09-04T08:15:51.473Z,100607.67
2022-09-04T08:17:32.700Z,100604.77
2022-09-04T08:20:03.824Z,100599.84
2022-09-04T08:26:41.089Z,100595.88
2022-09-04T08:26:46.155Z,100599.69
2022-09-04T08:29:49.847Z,100598.11
2022-09-04T08:32:46.733Z,100593.86
2022-09-04T08:35:31.481Z,100593.86
2022-09-04T08:38:21.015Z,100585.98
2022-09-04T08:41:13.054Z,100587.38
2022-09-04T08:43:43.856Z,100586.44
2022-09-04T08:46:31.978Z,100587.82
2022-09-04T08:49:13.856Z,100588.11
2022-09-04T08:52:14.500Z,100591.40
2022-09-04T08:55:01.898Z,100588.03
2022-09-04T08:57:35.787Z,100589.38
2022-09-04T09:00:17.685Z,100592.55
2022-09-04T09:02:50.688Z,100590.41
2022-09-04T09:05:45.938Z,100593.04
2022-09-04T09:08:21.661Z,100599.16
2022-09-04T09:10:52.768Z,100600.76
2022-09-04T09:13:29.248Z,100596.27
2022-09-04T09:16:01.958Z,100589.07
2022-09-04T09:18:41.293Z,100584.00
2022-09-04T09:21:41.376Z,100579.86
2022-09-04T09:24:30.255Z,100583.20
2022-09-04T09:27:39.553Z,100585.70
2022-09-04T09:30:21.772Z,100583.99
2022-09-04T09:33:01.352Z,100585.83
2022-09-04T09:36:05.631Z,100585.46
2022-09-04T09:38:51.444Z,100588.72
2022-09-04T09:41:58.021Z,100585.77
2022-09-04T09:45:07.195Z,100584.94
2022-09-04T09:47:49.471Z,100586.30
2022-09-04T09:50:38.733Z,100588.46
2022-09-04T09:53:31.911Z,100583.52
2022-09-04T09:56:15.863Z,100584.61
2022-09-04T09:59:06.658Z,100586.14
2022-09-04T10:02:01.209Z,100588.09
2022-09-04T10:04:36.620Z,100586.06
2022-09-04T10:07:32.958Z,100583.66
2022-09-04T10:10:27.115Z,100586.64
2022-09-04T10:13:54.366Z,100585.42
2022-09-04T10:17:20.638Z,100582.96
2022-09-04T10:20:24.555Z,100584.33
2022-09-04T10:23:17.741Z,100587.11
2022-09-04T10:26:31.687Z,100583.10
2022-09-04T10:29:11.593Z,100578.31
2022-09-04T10:32:07.507Z,100577.67
2022-09-04T10:34:36.593Z,100578.20
2022-09-04T10:37:24.479Z,100579.77
2022-09-04T10:40:34.488Z,100577.15
2022-09-04T10:43:22.558Z,100573.19
2022-09-04T10:46:22.995Z,100577.58
2022-09-04T10:52:54.317Z,100584.34
2022-09-04T11:05:17.591Z,100579.48
2022-09-04T11:07:33.209Z,100582.44
2022-09-04T11:10:49.735Z,100579.09
2022-09-04T11:12:03.596Z,100581.91
2022-09-04T11:14:08.017Z,100572.53
2022-09-04T11:16:57.304Z,100573.27
2022-09-04T11:19:56.122Z,100565.29
2022-09-04T11:22:33.313Z,100565.78
2022-09-04T11:25:18.642Z,100570.72
2022-09-04T11:31:40.907Z,100571.94
2022-09-04T11:34:38.513Z,100572.96
2022-09-04T11:41:36.789Z,100568.38
2022-09-04T11:44:02.436Z,100571.10
2022-09-04T11:44:11.747Z,100561.03
2022-09-04T11:46:38.420Z,100562.54
2022-09-04T11:49:09.464Z,100565.95
2022-09-04T11:51:43.812Z,100566.60
2022-09-04T11:54:19.204Z,100563.60
2022-09-04T11:57:15.557Z,100559.77
2022-09-04T12:00:13.913Z,100565.72
2022-09-04T12:03:02.447Z,100555.38
2022-09-04T12:05:49.677Z,100552.73
2022-09-04T12:08:36.395Z,100554.57
2022-09-04T12:11:03.335Z,100544.76
2022-09-04T12:13:32.791Z,100546.63
2022-09-04T12:16:02.855Z,100542.75
2022-09-04T12:18:45.836Z,100544.91
2022-09-04T12:21:13.844Z,100544.23
2022-09-04T12:24:01.684Z,100543.33
2022-09-04T12:26:40.151Z,100548.19
2022-09-04T12:29:36.600Z,100545.67
2022-09-04T12:32:27.069Z,100542.17
2022-09-04T12:35:09.305Z,100535.19
2022-09-04T12:37:59.127Z,100532.35
2022-09-04T12:40:42.324Z,100531.00
2022-09-04T12:43:29.425Z,100528.33
2022-09-04T12:46:24.554Z,100531.16
2022-09-04T12:49:26.347Z,100531.90
2022-09-04T12:52:22.313Z,100525.89
2022-09-04T12:55:05.782Z,100523.04
2022-09-04T12:57:59.869Z,100529.65
2022-09-04T13:00:51.903Z,100525.03
2022-09-04T13:03:57.956Z,100523.29
2022-09-04T13:07:16.061Z,100520.48
2022-09-04T13:19:17.475Z,100507.26
2022-09-04T13:28:06.938Z,100505.61
2022-09-04T13:29:18.191Z,100502.87
2022-09-04T13:40:35.758Z,100508.09
2022-09-04T13:43:36.413Z,100512.96
2022-09-04T13:46:21.136Z,100506.70
2022-09-04T13:49:42.247Z,100508.40
2022-09-04T13:52:52.361Z,100514.86
2022-09-04T13:55:49.965Z,100508.23
2022-09-04T13:58:54.944Z,100510.98
2022-09-04T14:01:25.158Z,100504.70
2022-09-04T14:04:05.200Z,100502.41
2022-09-04T14:06:53.804Z,100501.61
2022-09-04T14:09:22.305Z,100504.82
2022-09-04T14:11:59.558Z,100503.67
2022-09-04T14:14:48.055Z,100509.64
2022-09-04T14:17:44.734Z,100502.48
2022-09-04T14:20:24.382Z,100504.67
2022-09-04T14:23:30.342Z,100508.77
2022-09-04T14:26:07.951Z,100509.80
2022-09-04T14:28:40.307Z,100506.33
2022-09-04T14:31:32.720Z,100510.42
2022-09-04T14:34:26.012Z,100516.00
2022-09-04T14:37:09.910Z,100519.87
2022-09-04T14:39:57.439Z,100522.77
2022-09-04T14:42:34.624Z,100523.16
2022-09-04T14:45:11.969Z,100522.48
2022-09-04T14:47:48.721Z,100525.58
2022-09-04T14:50:30.761Z,100521.99
2022-09-04T14:53:07.194Z,100522.49
2022-09-04T14:55:43.192Z,100521.01
2022-09-04T14:58:43.152Z,100525.33
2022-09-04T15:01:16.818Z,100528.52
2022-09-04T15:04:11.077Z,100524.92
2022-09-04T15:07:13.229Z,100523.28
2022-09-04T15:10:17.263Z,100527.19
2022-09-04T15:12:59.569Z,100521.16
2022-09-04T15:15:59.358Z,100521.33
2022-09-04T15:18:33.606Z,100520.04
2022-09-04T15:21:21.504Z,100522.35
2022-09-04T15:23:56.183Z,100527.70
2022-09-04T15:26:47.072Z,100526.16
2022-09-04T15:29:53.759Z,100526.69
2022-09-04T15:32:33.720Z,100532.94
2022-09-04T15:35:33.325Z,100533.12
2022-09-04T15:38:26.500Z,100533.83
2022-09-04T15:41:16.633Z,100530.31
2022-09-04T15:43:50.265Z,100526.77
2022-09-04T15:46:20.821Z,100529.08
2022-09-04T15:49:09.670Z,100526.45
2022-09-04T15:51:51.192Z,100529.11
2022-09-04T15:54:42.081Z,100526.41
2022-09-04T15:57:36.738Z,100529.01
2022-09-04T16:00:16.970Z,100531.46
2022-09-04T16:03:14.099Z,100529.65
2022-09-04T16:05:48.909Z,100529.79
2022-09-04T16:08:49.512Z,100529.05
2022-09-04T16:12:03.691Z,100529.33
2022-09-04T16:15:36.039Z,100530.85
2022-09-04T16:18:53.376Z,100535.88
2022-09-04T16:21:48.941Z,100535.17
2022-09-04T16:24:43.157Z,100530.16
2022-09-04T16:27:22.926Z,100529.91
2022-09-04T16:29:54.812Z,100531.66
2022-09-04T16:32:52.070Z,100534.05
2022-09-04T16:35:32.393Z,100536.96
2022-09-04T16:38:34.480Z,100537.16
2022-09-04T16:41:27.818Z,100536.10
2022-09-04T16:44:06.428Z,100534.35
2022-09-04T16:46:43.974Z,100538.79
2022-09-04T16:49:31.848Z,100541.65
2022-09-04T16:52:26.473Z,100544.64
2022-09-04T16:55:02.027Z,100546.15
2022-09-04T16:57:47.678Z,100546.11
2022-09-04T17:00:17.019Z,100552.25
2022-09-04T17:02:56.852Z,100556.88
2022-09-04T17:05:34.661Z,100560.83
2022-09-04T17:08:18.585Z,100562.44
2022-09-04T17:11:06.936Z,100560.95
2022-09-04T17:14:15.383Z,100568.55
2022-09-04T17:16:55.944Z,100573.10
2022-09-04T17:19:49.577Z,100576.58
2022-09-04T17:28:44.719Z,100577.55
2022-09-04T17:29:12.870Z,100580.55
2022-09-04T17:29:38.321Z,100589.84
2022-09-04T17:33:22.630Z,100588.71
2022-09-04T17:40:40.273Z,100589.63
2022-09-04T17:40:49.875Z,100590.99
2022-09-04T17:42:20.292Z,100590.61
2022-09-04T17:45:31.678Z,100591.58
2022-09-04T17:48:14.572Z,100598.51
2022-09-04T17:50:51.201Z,100601.27
2022-09-04T17:53:33.457Z,100597.92
2022-09-04T17:56:06.955Z,100601.11
2022-09-04T17:59:09.316Z,100607.26
2022-09-04T18:01:59.289Z,100611.02
2022-09-04T18:04:32.054Z,100609.83
2022-09-04T18:07:51.092Z,100616.65
2022-09-04T18:10:09.461Z,100620.52
2022-09-04T18:12:52.427Z,100622.30
2022-09-04T18:15:51.589Z,100623.11
2022-09-04T18:18:29.698Z,100622.86
2022-09-04T18:21:22.439Z,100627.09
2022-09-04T18:23:58.362Z,100631.49
2022-09-04T18:26:25.156Z,100636.69
2022-09-04T18:30:57.198Z,100637.47
2022-09-04T18:37:23.852Z,100639.45
2022-09-04T18:37:25.487Z,100641.44
2022-09-04T18:39:26.535Z,100639.46
2022-09-04T18:49:54.097Z,100642.12
2022-09-04T18:50:22.620Z,100648.16
2022-09-04T18:50:31.760Z,100659.58
2022-09-04T18:53:43.946Z,100667.25
2022-09-04T18:56:20.746Z,100665.11
2022-09-04T18:58:58.029Z,100665.79
2022-09-04T19:01:34.144Z,100670.32
2022-09-04T19:04:00.808Z,100672.75
2022-09-04T19:06:47.708Z,100675.64
2022-09-04T19:09:16.870Z,100678.69
2022-09-04T19:11:53.687Z,100677.39
2022-09-04T19:14:25.192Z,100679.79
2022-09-04T19:17:05.199Z,100687.41
2022-09-04T19:19:42.839Z,100681.79
2022-09-04T19:22:28.320Z,100681.21
2022-09-04T19:25:07.877Z,100683.31
2022-09-04T19:27:40.795Z,100686.23
2022-09-04T19:30:25.088Z,100685.74
2022-09-04T19:33:02.388Z,100689.88
2022-09-04T19:35:36.131Z,100688.55
2022-09-04T19:41:42.960Z,100687.81
2022-09-04T19:46:04.810Z,100693.11
2022-09-04T19:46:06.802Z,100690.58
2022-09-04T19:47:28.864Z,100693.25
2022-09-04T19:53:20.030Z,100695.61
2022-09-04T19:53:37.480Z,100694.61
2022-09-04T19:56:09.383Z,100696.77
2022-09-04T19:58:43.973Z,100693.67
2022-09-04T20:01:16.542Z,100691.08
2022-09-04T20:03:57.189Z,100691.38
2022-09-04T20:06:59.470Z,100694.31
2022-09-04T20:09:38.659Z,100700.88
2022-09-04T20:12:14.555Z,100703.73
2022-09-04T20:15:00.230Z,100708.80
2022-09-04T20:17:35.976Z,100709.15
2022-09-04T20:20:05.907Z,100709.58
2022-09-04T20:22:44.798Z,100710.80
2022-09-04T20:25:24.246Z,100713.23
2022-09-04T20:27:56.706Z,100715.88
2022-09-04T20:30:24.198Z,100714.05
2022-09-04T20:33:03.499Z,100713.41
2022-09-04T20:35:42.149Z,100717.82
2022-09-04T20:38:23.496Z,100718.04
2022-09-04T20:40:56.053Z,100722.70
2022-09-04T20:43:37.464Z,100722.09
2022-09-04T20:51:45.314Z,100719.65
2022-09-04T20:52:55.882Z,100720.49
2022-09-04T20:53:00.394Z,100722.11
2022-09-04T20:54:51.209Z,100723.16
2022-09-04T21:00:14.704Z,100725.39
2022-09-04T21:03:23.006Z,100727.25
2022-09-04T21:03:28.915Z,100728.11
2022-09-04T21:06:07.379Z,100728.11
2022-09-04T21:08:40.231Z,100730.28
2022-09-04T21:11:14.862Z,100731.48
2022-09-04T21:14:00.261Z,100729.06
2022-09-04T21:16:45.316Z,100732.27
2022-09-04T21:19:27.781Z,100731.55
2022-09-04T21:21:57.859Z,100731.86
2022-09-04T21:24:34.446Z,100735.61
2022-09-04T21:27:15.584Z,100739.14
2022-09-04T21:29:45.072Z,100740.49
2022-09-04T21:32:24.318Z,100738.65
2022-09-04T21:35:12.657Z,100744.97
2022-09-04T21:37:48.937Z,100745.52
2022-09-04T21:40:50.440Z,100740.06
2022-09-04T21:43:17.270Z,100742.79
2022-09-04T21:45:59.124Z,100747.44
2022-09-04T21:48:25.938Z,100747.44
2022-09-04T21:51:00.693Z,100747.30
2022-09-04T21:53:27.226Z,100750.83
2022-09-04T22:00:09.329Z,100752.04
2022-09-04T22:02:29.145Z,100754.05
2022-09-04T22:02:43.255Z,100748.61
2022-09-04T22:04:46.610Z,100747.81
2022-09-04T22:10:11.977Z,100753.98
2022-09-04T22:13:34.246Z,100751.58
2022-09-04T22:13:41.032Z,100752.46
2022-09-04T22:16:04.379Z,100750.86
2022-09-04T22:18:30.999Z,100750.23
2022-09-04T22:21:16.409Z,100753.92
2022-09-04T22:23:48.883Z,100752.80
2022-09-04T22:26:38.699Z,100750.64
2022-09-04T22:29:08.162Z,100750.39
2022-09-04T22:32:02.421Z,100752.57
2022-09-04T22:34:45.852Z,100752.61
2022-09-04T22:37:30.306Z,100748.31
2022-09-04T22:40:05.155Z,100750.02
2022-09-04T22:42:37.861Z,100750.27
2022-09-04T22:45:23.076Z,100749.95
2022-09-04T22:48:08.112Z,100748.54
2022-09-04T22:50:50.247Z,100748.57
2022-09-04T22:53:27.151Z,100750.19
2022-09-04T22:56:22.660Z,100753.65
2022-09-04T22:58:53.898Z,100754.71
2022-09-04T23:01:22.636Z,100747.85
2022-09-04T23:03:57.972Z,100747.95
2022-09-04T23:09:04.498Z,100744.76
2022-09-04T23:13:44.858Z,100745.80
2022-09-04T23:13:48.350Z,100746.88
2022-09-04T23:15:52.020Z,100741.67
2022-09-04T23:20:41.129Z,100740.80
2022-09-04T23:26:45.515Z,100739.67
2022-09-04T23:26:49.608Z,100738.64
2022-09-04T23:27:28.018Z,100742.87
2022-09-04T23:30:04.810Z,100741.92
2022-09-04T23:32:35.547Z,100740.48
2022-09-04T23:35:20.064Z,100741.38
2022-09-04T23:38:07.679Z,100742.66
2022-09-04T23:41:32.526Z,100741.93
2022-09-04T23:44:28.536Z,100747.38
2022-09-04T23:47:46.637Z,100746.50
2022-09-04T23:50:43.213Z,100745.39
2022-09-04T23:53:30.749Z,100747.95
2022-09-04T23:56:18.423Z,100751.46
2022-09-04T23:59:24.501Z,100751.70
